Terminal Aerodrome Forecast
Issued by NWS

Home | Current Version | Previous Version | Text Only | Print | Product List | Glossary Off
Versions: 1 2 3 4 5 6 7 8 9 10 11 12 13 14 15

000
FTUS43 KOAX 251139
TAFCDR
TAF
KCDR 251139Z 2512/2612 14005KT P6SM SCT120
     FM251500 24007KT P6SM SCT120
     FM251900 27010G16KT P6SM SCT120
     FM260000 VRB03KT P6SM SCT120=

USA.gov is the U.S. government's official web portal to all federal, state and local government web resources and services.